Time;durP1;ratioP1;P1;durP2;ratioP2;P2;SDS_P1;SDS_P2;PMS_P1;PMS_P2;Temp;Humidity;BMP_temperature;BMP_pressure;BME280_temperature;BME280_humidity;BME280_pressure;Samples;Min_cycle;Max_cycle;Signal;HPM_P1;HPM_P2
2023/07/04 03:11:33;;;;;;;2.38;1.00;;;11.90;99.90;;;;;;820303;23;20337;-94
2023/07/04 03:14:17;;;;;;;4.32;1.23;;;12.00;99.90;;;;;;4920113;29;20066;-96
2023/07/04 03:16:43;;;;;;;3.67;1.35;;;;;;;;;;4926295;29;20047;-96
2023/07/04 03:19:09;;;;;;;2.23;1.00;;;11.90;99.90;;;;;;4926201;29;20062;-96
2023/07/04 03:21:38;;;;;;;2.63;1.10;;;12.10;99.90;;;;;;4930610;29;20070;-96
2023/07/04 03:24:09;;;;;;;2.58;1.17;;;12.20;99.90;;;;;;4929420;29;20039;-96
2023/07/04 03:26:38;;;;;;;3.42;1.10;;;11.90;99.90;;;;;;4928003;29;20364;-96
2023/07/04 03:29:06;;;;;;;3.65;1.48;;;12.00;99.90;;;;;;4928538;29;20040;-96
2023/07/04 03:31:32;;;;;;;3.42;1.20;;;12.10;99.90;;;;;;4925815;29;20130;-96
2023/07/04 03:33:58;;;;;;;2.10;1.00;;;12.00;99.90;;;;;;4927944;29;20105;-96
2023/07/04 03:36:25;;;;;;;3.78;0.88;;;12.10;99.90;;;;;;4929859;29;20051;-96
2023/07/04 03:38:50;;;;;;;2.22;1.00;;;12.10;99.90;;;;;;4930624;29;20039;-96
2023/07/04 03:41:16;;;;;;;4.88;1.13;;;12.10;99.90;;;;;;4927193;29;20101;-96
2023/07/04 03:43:42;;;;;;;4.28;0.90;;;12.00;99.90;;;;;;4929697;29;20122;-96
2023/07/04 03:46:21;;;;;;;2.65;0.85;;;12.10;99.90;;;;;;4947110;29;20123;-96
2023/07/04 03:48:48;;;;;;;4.30;1.10;;;12.00;99.90;;;;;;4911543;29;20434;-96
2023/07/04 03:51:16;;;;;;;2.15;1.00;;;12.00;99.90;;;;;;4931543;29;20047;-96
2023/07/04 03:53:42;;;;;;;1.98;0.90;;;12.10;99.90;;;;;;4929188;29;20082;-96
2023/07/04 03:56:12;;;;;;;3.03;0.80;;;12.20;99.90;;;;;;4913754;29;20043;-96
2023/07/04 03:58:41;;;;;;;2.20;0.85;;;12.20;99.90;;;;;;4913521;29;20058;-96
2023/07/04 04:01:07;;;;;;;2.95;1.00;;;11.70;99.90;;;;;;4928946;29;20043;-96
2023/07/04 04:03:38;;;;;;;4.05;0.77;;;12.20;99.90;;;;;;4934552;29;20044;-96
2023/07/04 04:06:14;;;;;;;2.55;0.70;;;12.30;99.90;;;;;;4936508;29;20096;-96
2023/07/04 04:08:43;;;;;;;1.92;0.77;;;12.40;99.90;;;;;;4940584;29;20046;-96
2023/07/04 04:11:22;;;;;;;3.00;0.90;;;12.30;99.90;;;;;;4939259;29;20067;-96
2023/07/04 04:13:57;;;;;;;4.43;0.98;;;12.20;99.90;;;;;;4954409;29;20035;-96
2023/07/04 04:16:26;;;;;;;2.45;0.90;;;12.10;99.90;;;;;;4936630;29;20134;-96
2023/07/04 04:19:06;;;;;;;1.55;0.80;;;11.80;99.90;;;;;;4953612;29;20051;-96
2023/07/04 04:21:36;;;;;;;3.60;0.70;;;12.00;99.90;;;;;;4937276;29;20407;-96
2023/07/04 04:24:13;;;;;;;2.30;0.75;;;12.40;99.90;;;;;;4937634;29;20035;-96
2023/07/04 04:26:57;;;;;;;2.75;0.73;;;12.30;99.90;;;;;;4954258;29;20048;-96
2023/07/04 04:39:50;;;;;;;2.83;0.85;;;12.50;99.90;;;;;;5089619;23;20060;-96
2023/07/04 04:42:23;;;;;;;2.00;0.82;;;12.60;99.90;;;;;;4952574;29;20096;-96
2023/07/04 05:13:34;;;;;;;3.10;1.00;;;13.00;99.90;;;;;;5232717;23;20059;-95
2023/07/04 05:16:02;;;;;;;3.22;1.17;;;13.00;99.90;;;;;;4923439;29;20039;-96
2023/07/04 05:18:29;;;;;;;2.25;0.98;;;12.40;99.90;;;;;;4920544;29;20150;-95
2023/07/04 05:21:10;;;;;;;1.42;0.80;;;13.10;99.90;;;;;;4924234;29;20042;-95
2023/07/04 05:23:38;;;;;;;2.05;0.95;;;13.20;99.90;;;;;;4922756;29;20692;-95
2023/07/04 05:26:14;;;;;;;2.22;1.10;;;13.20;99.90;;;;;;4921814;29;20045;-94
2023/07/04 05:28:40;;;;;;;3.10;0.90;;;12.80;99.90;;;;;;4911032;28;20039;-95
2023/07/04 05:36:24;;;;;;;3.78;1.30;;;13.40;99.90;;;;;;4950193;28;20070;-95
2023/07/04 05:38:52;;;;;;;2.75;1.70;;;13.50;99.90;;;;;;4924816;28;20042;-96
2023/07/04 05:51:51;;;;;;;3.55;1.63;;;13.90;99.90;;;;;;5244821;23;20083;-96
2023/07/04 06:20:30;;;;;;;4.25;1.20;;;15.60;99.90;;;;;;5341459;23;20047;-96
2023/07/04 06:23:24;;;;;;;;;;;;;;;;;;;;;
2023/07/04 06:26:07;;;;;;;2.72;1.00;;;15.80;99.90;;;;;;4938345;29;20051;-96
2023/07/04 06:28:47;;;;;;;2.60;0.93;;;15.80;99.90;;;;;;4911879;29;20482;-96
2023/07/04 06:31:30;;;;;;;6.43;0.98;;;15.80;99.90;;;;;;4916663;29;20131;-96
2023/07/04 06:34:07;;;;;;;2.90;0.90;;;15.80;99.90;;;;;;4903569;29;20087;-96
2023/07/04 06:36:57;;;;;;;1.95;0.73;;;15.70;99.90;;;;;;4906077;29;20476;-96
2023/07/04 06:39:36;;;;;;;2.08;0.80;;;15.70;99.90;;;;;;4906162;29;20131;-96
2023/07/04 06:42:09;;;;;;;2.97;1.40;;;15.60;99.90;;;;;;4901723;29;20047;-96
2023/07/04 06:44:34;;;;;;;2.88;0.70;;;15.70;99.90;;;;;;4900179;29;20043;-94
2023/07/04 06:47:00;;;;;;;1.73;0.55;;;15.80;99.90;;;;;;4891196;29;20048;-96
2023/07/04 06:49:27;;;;;;;1.80;0.57;;;15.90;99.90;;;;;;4904280;29;20039;-96
2023/07/04 06:51:52;;;;;;;3.33;0.60;;;15.90;99.90;;;;;;4905276;29;20043;-95
2023/07/04 06:54:19;;;;;;;2.65;0.80;;;15.70;99.90;;;;;;4903451;29;20040;-96
2023/07/04 06:56:47;;;;;;;2.08;1.05;;;16.20;99.90;;;;;;4923386;29;20545;-96
2023/07/04 06:59:13;;;;;;;2.83;0.75;;;16.30;99.90;;;;;;4929111;29;20051;-96
2023/07/04 07:01:42;;;;;;;2.08;0.82;;;16.40;99.90;;;;;;4925752;29;20039;-96
2023/07/04 07:04:08;;;;;;;3.40;0.70;;;16.40;99.90;;;;;;4930158;29;20047;-96
2023/07/04 07:06:34;;;;;;;4.88;0.70;;;16.40;99.90;;;;;;4895988;29;20090;-96
2023/07/04 07:09:08;;;;;;;1.98;0.60;;;16.90;99.90;;;;;;4946179;29;20062;-95
2023/07/04 07:11:34;;;;;;;2.35;0.68;;;17.70;99.90;;;;;;4922276;29;20047;-95
2023/07/04 07:14:06;;;;;;;4.95;0.60;;;17.80;99.90;;;;;;4930411;29;20195;-95
2023/07/04 07:16:46;;;;;;;2.40;0.57;;;19.10;99.90;;;;;;4919576;29;20066;-96
2023/07/04 07:19:14;;;;;;;1.27;0.57;;;19.60;99.90;;;;;;4927725;29;20055;-96
2023/07/04 07:21:43;;;;;;;2.70;0.68;;;20.10;99.90;;;;;;4926196;29;20052;-96
2023/07/04 07:24:12;;;;;;;2.22;0.50;;;20.10;99.90;;;;;;4925481;29;20048;-96
2023/07/04 07:26:49;;;;;;;2.28;0.57;;;19.90;99.90;;;;;;4925382;29;20063;-96
2023/07/04 07:29:20;;;;;;;2.35;0.70;;;19.50;99.90;;;;;;4906321;29;20043;-96
2023/07/04 07:31:47;;;;;;;2.58;0.57;;;19.10;99.90;;;;;;4928020;29;20047;-96
2023/07/04 07:34:13;;;;;;;2.97;0.80;;;18.60;99.90;;;;;;4921967;29;20617;-95
2023/07/04 07:36:44;;;;;;;2.55;0.57;;;19.60;99.90;;;;;;4905804;29;20071;-96
2023/07/04 07:39:14;;;;;;;2.33;0.60;;;20.20;99.90;;;;;;4919532;29;20709;-95
2023/07/04 07:41:47;;;;;;;2.55;0.88;;;20.50;99.90;;;;;;4922122;29;20054;-96
2023/07/04 07:44:13;;;;;;;1.50;0.68;;;19.80;99.90;;;;;;4918624;29;20032;-94
2023/07/04 07:46:40;;;;;;;2.67;0.60;;;19.20;99.90;;;;;;4920868;29;20039;-96
2023/07/04 07:49:08;;;;;;;1.13;0.52;;;18.80;99.90;;;;;;4921408;29;20484;-95
2023/07/04 07:51:37;;;;;;;3.80;0.60;;;18.40;99.90;;;;;;4920900;29;20127;-95
2023/07/04 07:54:06;;;;;;;2.38;0.68;;;18.60;99.90;;;;;;4922270;29;20039;-96
2023/07/04 07:56:39;;;;;;;3.08;0.80;;;17.90;99.90;;;;;;4923148;29;20126;-95
2023/07/04 07:59:06;;;;;;;2.72;0.80;;;17.70;99.90;;;;;;4920146;29;20044;-95
2023/07/04 08:01:33;;;;;;;4.65;0.70;;;17.50;99.90;;;;;;4920317;29;20569;-95
2023/07/04 08:04:00;;;;;;;1.58;0.65;;;17.40;99.90;;;;;;4921301;29;20044;-94
2023/07/04 08:06:37;;;;;;;2.08;0.68;;;17.40;99.90;;;;;;4914848;29;20039;-94
2023/07/04 08:09:05;;;;;;;1.88;0.65;;;17.40;99.90;;;;;;4920800;29;20082;-95
2023/07/04 08:11:32;;;;;;;1.52;0.52;;;17.50;99.90;;;;;;4920968;29;20036;-95
2023/07/04 08:13:58;;;;;;;1.97;0.43;;;17.50;99.90;;;;;;4911013;29;20040;-95
2023/07/04 08:16:29;;;;;;;2.33;0.43;;;17.50;99.90;;;;;;4904941;29;20483;-94
2023/07/04 08:18:58;;;;;;;1.85;0.90;;;17.50;99.90;;;;;;4918413;29;20534;-96
2023/07/04 08:21:26;;;;;;;1.45;0.45;;;17.60;99.90;;;;;;4905585;29;20058;-96
2023/07/04 08:23:52;;;;;;;2.53;0.52;;;17.70;99.90;;;;;;4916751;29;20511;-94
2023/07/04 08:26:20;;;;;;;3.45;0.63;;;17.80;99.90;;;;;;4914535;29;20043;-95
2023/07/04 08:28:46;;;;;;;4.65;1.00;;;17.90;99.90;;;;;;4906467;29;20051;-95
2023/07/04 08:31:15;;;;;;;2.63;0.70;;;18.10;99.90;;;;;;4914382;29;20039;-95
2023/07/04 08:33:41;;;;;;;3.03;0.60;;;18.10;99.90;;;;;;4922427;29;20115;-95
2023/07/04 08:36:09;;;;;;;2.33;0.50;;;18.10;99.90;;;;;;4904753;29;20047;-94
2023/07/04 08:38:35;;;;;;;2.28;0.45;;;18.10;99.90;;;;;;4913582;29;20047;-95
2023/07/04 08:41:02;;;;;;;2.83;0.90;;;18.00;99.90;;;;;;4924841;29;20134;-95
2023/07/04 08:43:36;;;;;;;1.90;0.50;;;18.00;99.90;;;;;;4919147;29;20511;-96
2023/07/04 08:46:07;;;;;;;1.70;0.40;;;17.90;99.90;;;;;;4921465;29;20120;-96
2023/07/04 08:48:33;;;;;;;1.92;0.50;;;17.80;99.90;;;;;;4919898;29;20078;-96
2023/07/04 08:51:02;;;;;;;2.05;0.32;;;17.70;99.90;;;;;;4906354;29;20098;-95
2023/07/04 08:53:28;;;;;;;2.55;0.73;;;17.60;99.90;;;;;;4935807;29;20179;-95
2023/07/04 08:56:03;;;;;;;3.17;0.90;;;17.80;99.90;;;;;;4920531;29;20323;-96
2023/07/04 08:59:08;;;;;;;2.50;0.68;;;18.10;99.90;;;;;;4911183;29;20052;-96
2023/07/04 09:01:44;;;;;;;3.35;0.70;;;18.30;99.90;;;;;;4919971;29;20097;-95
2023/07/04 09:04:36;;;;;;;6.05;0.82;;;18.30;99.90;;;;;;4918921;29;20044;-95
2023/07/04 09:07:32;;;;;;;2.92;0.65;;;18.40;99.90;;;;;;4919193;29;20555;-96
2023/07/04 09:10:21;;;;;;;3.15;0.60;;;18.90;99.90;;;;;;4889530;29;20048;-95
2023/07/04 09:12:48;;;;;;;4.00;1.00;;;19.50;99.90;;;;;;4903711;29;20126;-94
2023/07/04 09:15:21;;;;;;;3.55;0.80;;;20.20;99.90;;;;;;4901026;29;20098;-94
2023/07/04 09:18:08;;;;;;;3.60;0.85;;;20.30;99.90;;;;;;4918269;29;20048;-95
2023/07/04 09:20:42;;;;;;;2.65;0.60;;;20.30;99.90;;;;;;4916098;29;20071;-96
2023/07/04 09:23:14;;;;;;;4.68;1.13;;;20.00;99.90;;;;;;4914228;29;20107;-96
2023/07/04 09:25:41;;;;;;;2.80;0.85;;;19.60;99.90;;;;;;4919066;29;20035;-95
2023/07/04 09:28:54;;;;;;;5.18;0.93;;;;;;;;;;4913935;29;20039;-96
2023/07/04 09:31:23;;;;;;;2.60;0.90;;;18.60;99.90;;;;;;4834967;29;20049;-95
2023/07/04 09:33:58;;;;;;;5.28;0.80;;;18.20;99.90;;;;;;4914983;29;20047;-96
2023/07/04 09:36:33;;;;;;;3.22;0.80;;;18.00;99.90;;;;;;4914133;29;20056;-95
2023/07/04 09:39:04;;;;;;;5.22;0.75;;;17.80;99.90;;;;;;4908551;29;20127;-96
2023/07/04 09:41:35;;;;;;;6.47;1.25;;;17.60;99.90;;;;;;4915116;29;20040;-96
2023/07/04 09:44:15;;;;;;;3.78;1.02;;;17.50;99.90;;;;;;4915246;29;20102;-95
2023/07/04 09:46:47;;;;;;;4.15;0.95;;;17.40;99.90;;;;;;4918275;29;20032;-95
2023/07/04 09:49:31;;;;;;;3.88;1.33;;;17.20;99.90;;;;;;4921765;29;20388;-96
2023/07/04 09:52:04;;;;;;;5.35;0.82;;;17.30;99.90;;;;;;4923415;29;20039;-96
2023/07/04 09:54:33;;;;;;;2.40;0.80;;;17.50;99.90;;;;;;4921970;29;20135;-95
2023/07/04 09:57:22;;;;;;;4.30;0.95;;;17.60;99.90;;;;;;4917339;29;20047;-93
2023/07/04 09:59:50;;;;;;;4.20;0.90;;;17.50;99.90;;;;;;4917771;29;20855;-95
2023/07/04 10:02:38;;;;;;;3.38;0.80;;;17.90;99.90;;;;;;4922055;29;20067;-96
2023/07/04 10:05:11;;;;;;;4.70;0.95;;;17.70;99.90;;;;;;4926765;29;20107;-95
2023/07/04 10:07:41;;;;;;;3.13;0.80;;;17.60;99.90;;;;;;4927396;29;20036;-96
2023/07/04 10:10:12;;;;;;;3.97;0.80;;;17.40;99.90;;;;;;4905833;29;20095;-94
2023/07/04 10:12:49;;;;;;;3.00;0.85;;;17.70;99.90;;;;;;4936107;29;20044;-96
2023/07/04 10:15:41;;;;;;;2.58;1.08;;;18.00;99.90;;;;;;4919918;29;20059;-95
2023/07/04 10:18:29;;;;;;;2.85;0.70;;;18.20;99.90;;;;;;4924318;29;20495;-96
2023/07/04 10:21:12;;;;;;;2.95;0.75;;;18.20;99.90;;;;;;4914589;29;20043;-96
2023/07/04 10:23:37;;;;;;;1.80;0.70;;;18.20;99.90;;;;;;4930112;29;20039;-96
2023/07/04 10:26:14;;;;;;;3.90;0.80;;;18.30;99.90;;;;;;4914862;29;20039;-95
2023/07/04 10:28:41;;;;;;;3.17;0.60;;;18.50;99.90;;;;;;4926610;29;20043;-95
2023/07/04 10:31:36;;;;;;;2.47;0.60;;;18.90;99.90;;;;;;4926795;29;20050;-96
2023/07/04 10:34:14;;;;;;;3.97;0.68;;;19.20;99.90;;;;;;4933150;29;20052;-96
2023/07/04 10:37:46;;;;;;;2.78;0.65;;;19.40;99.90;;;;;;4928563;29;20050;-96
2023/07/04 10:56:04;;;;;;;;;;;;;;;;;;;;;
2023/07/04 11:34:26;;;;;;;4.03;1.02;;;20.40;99.90;;;;;;4870816;29;20078;-96
2023/07/04 11:37:04;;;;;;;2.53;0.90;;;20.60;99.90;;;;;;4835622;29;20140;-96
2023/07/04 11:39:46;;;;;;;2.63;0.77;;;20.90;99.90;;;;;;4912961;29;20047;-96
2023/07/04 11:46:57;;;;;;;2.28;0.63;;;20.60;99.90;;;;;;4906708;29;20067;-96
2023/07/04 11:49:34;;;;;;;2.40;0.75;;;20.40;99.90;;;;;;4878128;29;20153;-96
2023/07/04 11:52:27;;;;;;;4.45;1.00;;;20.30;99.90;;;;;;4883873;29;20045;-95
2023/07/04 11:55:43;;;;;;;;;;;;;;;;;;;;;
2023/07/04 12:06:55;;;;;;;3.03;0.90;;;20.10;99.90;;;;;;4804527;29;20142;-96
2023/07/04 12:09:32;;;;;;;3.78;0.80;;;20.00;99.90;;;;;;4759353;29;20062;-96
2023/07/04 12:23:16;;;;;;;3.17;0.93;;;19.70;99.90;;;;;;4728206;30;20183;-96
2023/07/04 12:34:21;;;;;;;3.08;0.80;;;19.10;99.90;;;;;;4744373;30;20139;-96
2023/07/04 12:40:57;;;;;;;3.28;0.70;;;18.80;99.90;;;;;;4793667;30;20135;-93
2023/07/04 12:47:46;;;;;;;4.10;0.80;;;19.30;99.90;;;;;;4785799;29;20041;-96
2023/07/04 12:54:09;;;;;;;2.85;0.70;;;19.50;99.90;;;;;;4844840;29;20044;-95
2023/07/04 12:57:41;;;;;;;;;;;;;;;;;;;;;
2023/07/04 13:05:17;;;;;;;3.83;0.88;;;19.30;99.90;;;;;;4783713;30;20057;-96
2023/07/04 13:08:03;;;;;;;2.25;0.80;;;19.60;99.90;;;;;;4766836;30;20657;-96
2023/07/04 13:10:57;;;;;;;3.30;0.70;;;19.60;99.90;;;;;;4709287;30;20053;-94
2023/07/04 13:17:29;;;;;;;4.05;0.80;;;19.60;99.90;;;;;;4763999;29;20058;-94
2023/07/04 13:20:11;;;;;;;4.55;0.77;;;19.70;99.90;;;;;;4863210;29;20215;-96
2023/07/04 13:23:26;;;;;;;2.10;0.80;;;19.50;99.90;;;;;;4805815;29;20088;-95
2023/07/04 13:26:17;;;;;;;3.28;1.17;;;19.50;99.90;;;;;;4814256;29;20173;-95
2023/07/04 13:29:11;;;;;;;4.70;0.93;;;19.10;99.90;;;;;;4825755;29;20129;-95
2023/07/04 13:31:38;;;;;;;2.47;0.75;;;19.50;99.90;;;;;;4860032;29;20131;-95
2023/07/04 13:34:33;;;;;;;4.95;1.00;;;19.50;99.90;;;;;;4869245;29;20074;-94
2023/07/04 13:41:12;;;;;;;2.83;1.00;;;19.60;99.90;;;;;;4896377;29;20054;-95
2023/07/04 13:48:17;;;;;;;3.03;0.82;;;19.60;99.90;;;;;;4876920;29;20089;-95
2023/07/04 13:51:10;;;;;;;3.15;0.90;;;19.50;99.90;;;;;;4860244;29;20075;-96
2023/07/04 13:53:39;;;;;;;4.50;0.80;;;19.50;99.90;;;;;;4849753;29;20085;-96
2023/07/04 13:56:11;;;;;;;2.60;0.77;;;19.30;99.90;;;;;;4901326;29;20106;-96
2023/07/04 13:58:38;;;;;;;3.15;0.73;;;19.30;99.90;;;;;;4896432;29;20103;-95
2023/07/04 14:01:05;;;;;;;3.13;1.15;;;19.20;99.90;;;;;;4915937;29;20138;-95
2023/07/04 14:03:33;;;;;;;2.97;0.93;;;19.30;99.90;;;;;;4886769;29;20542;-96
2023/07/04 14:09:22;;;;;;;4.05;0.80;;;19.20;99.90;;;;;;4921718;29;20111;-96
2023/07/04 14:11:48;;;;;;;2.72;0.90;;;19.20;99.90;;;;;;4889463;29;20071;-95
2023/07/04 14:14:14;;;;;;;2.60;0.73;;;19.20;99.90;;;;;;4903410;29;20459;-95
2023/07/04 14:16:40;;;;;;;3.47;1.10;;;19.10;99.90;;;;;;4901823;29;20496;-95
2023/07/04 14:19:06;;;;;;;3.78;0.80;;;19.20;99.90;;;;;;4866083;29;20048;-95
2023/07/04 14:21:31;;;;;;;2.80;1.17;;;19.20;99.90;;;;;;4868389;29;20048;-95
2023/07/04 14:24:01;;;;;;;4.80;0.98;;;19.30;99.90;;;;;;4875661;29;20052;-96
2023/07/04 14:26:29;;;;;;;3.33;1.25;;;19.30;99.90;;;;;;4915402;29;20261;-94
2023/07/04 14:28:55;;;;;;;2.88;0.90;;;19.40;99.90;;;;;;4918716;29;20074;-96
2023/07/04 14:31:22;;;;;;;2.40;0.65;;;;;;;;;;4918263;29;20040;-95
2023/07/04 14:33:49;;;;;;;3.42;0.75;;;19.40;99.90;;;;;;4919467;29;20120;-96
2023/07/04 14:36:29;;;;;;;3.95;0.90;;;19.40;99.90;;;;;;4906184;29;20039;-96
2023/07/04 14:38:55;;;;;;;3.63;0.98;;;19.40;99.90;;;;;;4908081;29;20044;-96
2023/07/04 14:41:21;;;;;;;3.97;0.98;;;19.30;99.90;;;;;;4918426;29;20044;-96
2023/07/04 14:43:47;;;;;;;4.22;1.10;;;19.20;99.90;;;;;;4897052;29;20068;-95
2023/07/04 14:46:13;;;;;;;4.25;0.90;;;19.20;99.90;;;;;;4917000;29;20032;-94
2023/07/04 14:48:39;;;;;;;2.80;0.85;;;19.20;99.90;;;;;;4901180;29;20080;-95
2023/07/04 14:51:13;;;;;;;3.53;1.08;;;19.30;99.90;;;;;;4914515;29;20083;-96
2023/07/04 14:53:42;;;;;;;2.70;0.90;;;19.50;99.90;;;;;;4910401;29;20138;-94
2023/07/04 14:56:11;;;;;;;3.90;0.73;;;19.30;99.90;;;;;;4919029;29;20135;-95
2023/07/04 14:58:38;;;;;;;2.88;0.70;;;19.20;99.90;;;;;;4920004;29;20111;-95
2023/07/04 15:01:06;;;;;;;4.35;0.98;;;19.30;99.90;;;;;;4907503;29;20047;-96
2023/07/04 15:03:34;;;;;;;7.88;0.95;;;19.40;99.90;;;;;;4926865;29;20040;-96
2023/07/04 15:06:03;;;;;;;2.90;0.88;;;19.30;99.90;;;;;;4918498;29;20074;-96
2023/07/04 15:08:29;;;;;;;4.20;1.05;;;19.40;99.90;;;;;;4918982;29;20051;-96
2023/07/04 15:10:55;;;;;;;2.78;0.98;;;19.50;99.90;;;;;;4917290;29;20127;-96
2023/07/04 15:13:21;;;;;;;3.28;1.20;;;19.50;99.90;;;;;;4925769;29;20051;-95
2023/07/04 15:15:48;;;;;;;3.40;1.35;;;19.40;99.90;;;;;;4904855;29;20127;-95
2023/07/04 15:18:15;;;;;;;5.43;2.30;;;19.40;99.90;;;;;;4918686;29;20044;-95
2023/07/04 15:20:40;;;;;;;4.05;1.63;;;19.30;99.90;;;;;;4919859;29;20467;-95
2023/07/04 15:23:09;;;;;;;3.47;1.17;;;19.30;99.90;;;;;;4917794;29;20040;-96
2023/07/04 15:25:38;;;;;;;3.83;0.98;;;19.30;99.90;;;;;;4878029;29;20048;-96
2023/07/04 15:28:07;;;;;;;3.25;1.10;;;19.30;99.90;;;;;;4903383;29;20122;-95
2023/07/04 15:30:50;;;;;;;4.88;1.13;;;19.40;99.90;;;;;;4906226;29;20066;-95
2023/07/04 15:33:20;;;;;;;3.03;0.82;;;19.20;99.90;;;;;;4921541;29;20106;-95
2023/07/04 15:35:50;;;;;;;3.83;1.00;;;19.20;99.90;;;;;;4914481;29;20048;-96
2023/07/04 15:38:20;;;;;;;3.95;0.68;;;19.40;99.90;;;;;;4930749;29;20043;-95
2023/07/04 15:40:55;;;;;;;3.03;1.08;;;19.40;99.90;;;;;;4922304;29;20092;-96
2023/07/04 15:43:45;;;;;;;2.83;0.75;;;19.50;99.90;;;;;;4924679;29;20051;-96
2023/07/04 15:46:17;;;;;;;2.25;0.73;;;19.40;99.90;;;;;;4919055;29;20051;-95
2023/07/04 15:49:01;;;;;;;5.07;0.95;;;19.30;99.90;;;;;;4920500;29;20043;-95
2023/07/04 15:51:53;;;;;;;3.90;0.82;;;19.40;99.90;;;;;;4923226;29;20114;-95
2023/07/04 15:54:24;;;;;;;2.78;0.70;;;19.40;99.90;;;;;;4937606;29;20043;-95
2023/07/04 15:56:51;;;;;;;2.15;0.73;;;19.30;99.90;;;;;;4917728;29;20044;-95
2023/07/04 15:59:17;;;;;;;2.35;0.80;;;19.30;99.90;;;;;;4924636;29;20099;-96
2023/07/04 16:01:46;;;;;;;2.83;0.80;;;19.20;99.90;;;;;;4918433;29;20131;-96
2023/07/04 16:04:25;;;;;;;4.38;0.93;;;19.10;99.90;;;;;;4914720;29;20551;-95
2023/07/04 16:07:05;;;;;;;2.28;0.70;;;19.00;99.90;;;;;;4921256;29;20040;-95
2023/07/04 16:09:32;;;;;;;7.00;1.17;;;18.90;99.90;;;;;;4903513;29;20107;-96
2023/07/04 16:11:58;;;;;;;2.38;0.85;;;18.80;99.90;;;;;;4916895;29;20032;-96
2023/07/04 16:14:37;;;;;;;1.48;0.60;;;18.90;99.90;;;;;;4919799;29;20059;-96
2023/07/04 16:17:14;;;;;;;2.45;0.90;;;18.80;99.90;;;;;;4917065;29;20040;-95
2023/07/04 16:19:40;;;;;;;2.35;0.65;;;18.80;99.90;;;;;;4933522;29;20058;-96
2023/07/04 16:22:17;;;;;;;1.38;0.60;;;18.80;99.90;;;;;;4916540;29;20072;-96
2023/07/04 16:24:46;;;;;;;2.55;0.85;;;18.80;99.90;;;;;;4901028;29;20060;-94
2023/07/04 16:27:23;;;;;;;3.45;1.05;;;19.00;99.90;;;;;;4913486;29;20135;-96
2023/07/04 16:30:17;;;;;;;3.58;0.90;;;19.10;99.90;;;;;;4921434;29;20040;-96
2023/07/04 16:32:54;;;;;;;3.90;1.00;;;19.00;99.90;;;;;;4916534;29;20055;-96
2023/07/04 16:35:20;;;;;;;4.10;0.80;;;19.10;99.90;;;;;;4905914;29;20058;-95
2023/07/04 16:37:48;;;;;;;5.88;1.13;;;18.90;99.90;;;;;;4921986;29;20044;-96
2023/07/04 16:40:14;;;;;;;2.75;0.80;;;19.00;99.90;;;;;;4915388;29;20472;-96
2023/07/04 16:42:40;;;;;;;3.05;0.90;;;19.00;99.90;;;;;;4916022;29;21581;-95
2023/07/04 16:45:07;;;;;;;2.70;0.88;;;18.90;99.90;;;;;;4905149;29;20048;-96
2023/07/04 16:47:33;;;;;;;;;;;18.90;99.90;;;;;;4921061;29;20383;-96
2023/07/04 16:49:59;;;;;;;2.33;0.75;;;18.80;99.90;;;;;;4949627;29;19946;-95
2023/07/04 16:52:25;;;;;;;3.00;0.73;;;18.80;99.90;;;;;;4919552;29;20156;-96
2023/07/04 16:54:52;;;;;;;3.53;1.00;;;18.80;99.90;;;;;;4920364;29;20042;-96
2023/07/04 16:57:18;;;;;;;3.53;0.80;;;18.80;99.90;;;;;;4912446;29;20055;-96
2023/07/04 16:59:44;;;;;;;1.75;0.60;;;18.80;99.90;;;;;;4918569;29;20039;-96
2023/07/04 17:02:10;;;;;;;2.65;1.02;;;18.80;99.90;;;;;;4918370;29;20055;-96
2023/07/04 17:04:37;;;;;;;2.23;0.70;;;18.80;99.90;;;;;;4916205;29;20040;-96
2023/07/04 17:07:06;;;;;;;3.08;1.20;;;18.80;99.90;;;;;;4911193;29;20091;-96
2023/07/04 17:09:32;;;;;;;3.22;1.02;;;18.80;99.90;;;;;;4904432;29;20044;-96
2023/07/04 17:11:58;;;;;;;1.95;0.75;;;18.80;99.90;;;;;;4901375;29;20135;-96
2023/07/04 17:14:26;;;;;;;2.95;0.77;;;18.70;99.90;;;;;;4917385;29;20111;-95
2023/07/04 17:16:52;;;;;;;;;;;18.70;99.90;;;;;;4917753;29;20044;-95
2023/07/04 17:19:18;;;;;;;2.65;0.98;;;18.70;99.90;;;;;;4914073;29;19931;-95
2023/07/04 17:21:44;;;;;;;3.63;0.80;;;18.60;99.90;;;;;;4906565;29;20051;-96
2023/07/04 17:24:10;;;;;;;2.15;0.70;;;18.60;99.90;;;;;;4917498;29;20079;-95
2023/07/04 17:26:36;;;;;;;3.70;1.17;;;18.60;99.90;;;;;;4918166;29;20078;-96
2023/07/04 17:29:03;;;;;;;2.17;0.70;;;18.60;99.90;;;;;;4918986;29;20039;-95
2023/07/04 17:31:29;;;;;;;4.15;0.95;;;18.50;99.90;;;;;;4920295;29;20048;-96
2023/07/04 17:34:02;;;;;;;3.53;0.73;;;18.50;99.90;;;;;;4923944;29;20607;-96
2023/07/04 17:36:33;;;;;;;1.63;0.70;;;18.50;99.90;;;;;;4894595;29;20050;-96
2023/07/04 17:38:59;;;;;;;2.80;0.73;;;18.50;99.90;;;;;;4905688;29;20044;-96
2023/07/04 17:41:27;;;;;;;4.03;0.88;;;18.40;99.90;;;;;;4912734;29;20040;-96
2023/07/04 17:43:55;;;;;;;2.65;0.70;;;18.40;99.90;;;;;;4918597;29;20036;-96
2023/07/04 17:46:22;;;;;;;3.38;0.95;;;18.30;99.90;;;;;;4900899;29;20047;-96
2023/07/04 17:48:50;;;;;;;2.53;0.77;;;18.30;99.90;;;;;;4921107;29;20088;-96
2023/07/04 17:51:34;;;;;;;3.10;0.95;;;18.20;99.90;;;;;;4928934;29;20039;-96
2023/07/04 17:54:08;;;;;;;3.55;1.10;;;18.20;99.90;;;;;;4897752;29;20766;-95
2023/07/04 17:56:48;;;;;;;3.13;0.88;;;18.20;99.90;;;;;;4900060;29;20122;-96
2023/07/04 17:59:14;;;;;;;1.88;0.60;;;18.20;99.90;;;;;;4898314;29;20052;-96
2023/07/04 18:02:15;;;;;;;2.55;0.77;;;18.20;99.90;;;;;;4915972;29;20051;-96
2023/07/04 18:04:55;;;;;;;4.30;1.00;;;18.10;99.90;;;;;;4885747;29;20130;-96
2023/07/04 18:07:25;;;;;;;1.63;0.63;;;18.10;99.90;;;;;;4901965;29;20044;-96
2023/07/04 18:09:53;;;;;;;2.05;0.70;;;18.10;99.90;;;;;;4916344;29;20039;-96
2023/07/04 18:12:35;;;;;;;1.88;0.70;;;18.10;99.90;;;;;;4916877;29;20058;-96
2023/07/04 18:15:13;;;;;;;3.33;0.60;;;;;;;;;;4902436;29;20711;-96
2023/07/04 18:17:44;;;;;;;2.50;0.93;;;18.10;99.90;;;;;;4915055;29;20055;-96
2023/07/04 18:20:10;;;;;;;3.10;0.80;;;18.20;99.90;;;;;;4916992;29;20656;-96
2023/07/04 18:22:39;;;;;;;3.87;0.77;;;;;;;;;;4916184;29;20107;-95
2023/07/04 18:25:16;;;;;;;2.92;0.80;;;18.00;99.90;;;;;;4901352;29;20479;-95
2023/07/04 18:27:45;;;;;;;3.60;0.75;;;17.90;99.90;;;;;;4902392;29;20039;-96
2023/07/04 18:30:14;;;;;;;2.22;0.60;;;17.90;99.90;;;;;;4904408;29;20051;-96
2023/07/04 18:32:49;;;;;;;2.08;0.70;;;17.80;99.90;;;;;;4904847;29;20150;-95
2023/07/04 18:35:15;;;;;;;3.83;0.90;;;17.80;99.90;;;;;;4891876;29;20048;-95
2023/07/04 18:37:41;;;;;;;3.33;0.88;;;17.80;99.90;;;;;;4915704;29;20058;-96
2023/07/04 18:40:16;;;;;;;4.10;1.10;;;17.70;99.90;;;;;;4914001;29;20051;-96
2023/07/04 18:43:23;;;;;;;3.25;0.80;;;17.70;99.90;;;;;;4914175;29;20040;-96
2023/07/04 18:45:55;;;;;;;2.70;0.90;;;17.60;99.90;;;;;;4912185;29;20115;-96
2023/07/04 18:49:18;;;;;;;;;;;;;;;;;;;;;
2023/07/04 18:52:26;;;;;;;2.33;0.80;;;17.50;99.90;;;;;;4925985;29;20067;-96
2023/07/04 18:55:44;;;;;;;;;;;;;;;;;;;;;
2023/07/04 19:06:09;;;;;;;3.17;0.82;;;17.20;99.90;;;;;;4857910;29;20452;-96
2023/07/04 19:09:17;;;;;;;3.95;0.82;;;17.50;99.90;;;;;;4846163;29;20057;-96
2023/07/04 19:49:41;;;;;;;;;;;;;;;;;;;;;
2023/07/04 20:02:51;;;;;;;1.98;0.77;;;16.50;99.90;;;;;;5073050;23;20850;-95
2023/07/04 20:09:26;;;;;;;;;;;;;;;;;;;;;
2023/07/04 20:12:21;;;;;;;2.83;0.77;;;16.20;99.90;;;;;;4894612;29;20087;-96
2023/07/04 20:15:10;;;;;;;4.97;1.17;;;16.10;99.90;;;;;;4936845;29;20043;-96
2023/07/04 20:17:42;;;;;;;;;;;16.10;99.90;;;;;;4901253;29;20047;-96
2023/07/04 20:20:28;;;;;;;2.88;0.90;;;15.30;99.90;;;;;;4943296;29;20410;-95
2023/07/04 20:22:54;;;;;;;2.60;1.00;;;16.00;99.90;;;;;;4924412;29;20067;-96
2023/07/04 20:25:20;;;;;;;4.25;0.80;;;15.90;99.90;;;;;;4927311;29;20477;-94
2023/07/04 20:27:46;;;;;;;2.85;0.80;;;15.80;99.90;;;;;;4915129;28;20043;-96
2023/07/04 20:30:25;;;;;;;3.30;0.98;;;15.80;99.90;;;;;;4934509;29;20051;-96
2023/07/04 20:33:54;;;;;;;;;;;;;;;;;;;;;
2023/07/04 21:12:04;;;;;;;3.20;0.98;;;15.50;99.90;;;;;;799534;23;20354;-96
2023/07/04 21:15:43;;;;;;;4.00;1.20;;;15.40;99.90;;;;;;4928421;29;20046;-96
2023/07/04 21:18:20;;;;;;;3.45;1.23;;;15.40;99.90;;;;;;4899209;29;20044;-96
2023/07/04 21:21:04;;;;;;;2.60;1.40;;;14.90;99.90;;;;;;4906339;29;20067;-96
2023/07/04 22:10:44;;;;;;;5.00;1.63;;;14.90;99.90;;;;;;4969217;29;20114;-96
2023/07/04 22:26:08;;;;;;;3.60;1.63;;;14.90;99.90;;;;;;5098383;23;19930;-96
2023/07/04 22:28:39;;;;;;;4.35;1.50;;;14.80;99.90;;;;;;4965201;28;20083;-96
2023/07/04 22:31:21;;;;;;;6.30;1.40;;;14.80;99.90;;;;;;4943905;29;20087;-96
